Terminal Aerodrome Forecast
Issued by NWS Medford, OR

Home | Current Version | Previous Version | Text Only | Print | Product List | Glossary On
Versions: 1 2 3 4 5 6 7 8 9 10 11 12 13 14 15 16
000
FTUS46 KMFR 280541
TAFMFR
TAF
KMFR 280541Z 2806/2906 30012KT P6SM VCSH SCT035 BKN060
     FM280700 28006KT P6SM SCT030 BKN050
     FM281000 VRB03KT P6SM SCT030
     FM281900 35004KT P6SM SKC=

USA.gov is the U.S. government's official web portal to all federal, state and local government web resources and services.